Durango, CO (81303)

6:06 PM MDT on April 18, 2015 (GMT -0600)
Meadowood Farms | | Change Station
CLOSE
Current Station
Personal Weather Station
Location: Durango, CO
Elevation: 6913 ft
Nearby Weather Stations

Elev 6913 ft 37.21 °N, 107.79 °W | Updated 8 seconds ago

Overcast
Overcast
51.3 °F
Feels Like 51.3 °F
N
13.5
Wind Variable Wind from North
Gusts 24.4 mph

Today
High -- | Low -- °F
--% Chance of Precip.
Yesterday
High -- | Low -- °F
Precip. -- in
6:33 AM 7:49 PM
New Moon, 0% visible
Pressure 29.91 in
Visibility 10.0 miles
Clouds Mostly Cloudy 8500 ft
Dew Point 26 °F
Humidity 38%
Rainfall 0.05 in
Snow Depth Not available.
UV 1 out of 12
Pollen 7.50 out of 12
Air Quality Not available.
Flu Activity Local Activity
METAR KDRO 182353Z AUTO 34007KT 10SM BKN085 10/M03 A2994 RMK AO2 SLP128 T01001028 10117 20033 53001

More Conditions Fewer Conditions

Pressure 29.91 in
Visibility 10.0 miles
Clouds Mostly Cloudy 8500 ft
Dew Point 26 °F
Humidity 38%
Rainfall 0.05 in
Snow Depth Not available.
UV 1 out of 12
Pollen 7.50 out of 12
Air Quality Not available.
Flu Activity Local Activity
METAR KDRO 182353Z AUTO 34007KT 10SM BKN085 10/M03 A2994 RMK AO2 SLP128 T01001028 10117 20033 53001

More Conditions Fewer Conditions

10-Day Weather Forecast

Almanac

Astronomy

Apr. 18, 2015 Rise Set
Actual Time
Civil Twilight
Nautical Twilight
Astronomical Twilight
Moon
Length of Visible Light
Length of Day
Tomorrow will be .
, % of the Moon is Illuminated

Today's Extremes

State Highs State Lows

Community

WunderPhotos

Upload Photos

1,814,588 photos uploaded!

WunderBlogs® & News

Nearby

Air Quality

  Air Quality AQ Index Pollutant
Not available.

Snow Depth

Station Depth Elevation

Earthquake Activity

City Distance Mag. Time & Date
Minimum magnitude displayed is 2.5.

Coastal Water Temperatures

Place Temperature

Stations

Nearby Weather Stations

Station Location Temp. Windchill Dew Point Humidity Wind Precip. Elev Updated Type